createdAt,value
2022-08-18T01:45:23.041Z,99044.78
2022-08-18T01:47:53.003Z,99052.66
2022-08-18T01:50:22.626Z,99050.06
2022-08-18T01:52:53.836Z,99051.38
2022-08-18T01:55:23.525Z,99043.47
2022-08-18T01:57:53.161Z,99045.28
2022-08-18T02:00:26.374Z,99038.72
2022-08-18T02:03:00.589Z,99041.44
2022-08-18T02:05:38.962Z,99046.03
2022-08-18T02:08:10.767Z,99046.03
2022-08-18T02:10:42.164Z,99036.34
2022-08-18T02:13:12.057Z,99036.41
2022-08-18T02:15:44.705Z,99038.19
2022-08-18T02:18:25.904Z,99034.72
2022-08-18T02:21:11.048Z,99031.97
2022-08-18T02:23:41.797Z,99036.31
2022-08-18T02:26:23.373Z,99036.63
2022-08-18T02:28:53.023Z,99043.19
2022-08-18T02:31:28.100Z,99042.44
2022-08-18T02:33:57.747Z,99039.81
2022-08-18T02:36:28.399Z,99042.09
2022-08-18T02:38:59.472Z,99040.75
2022-08-18T02:41:31.277Z,99042.31
2022-08-18T02:44:01.333Z,99045.22
2022-08-18T02:46:33.789Z,99047.38
2022-08-18T02:49:03.820Z,99040.19
2022-08-18T02:51:33.517Z,99041.31
2022-08-18T02:54:03.114Z,99039.28
2022-08-18T02:56:41.838Z,99042.22
2022-08-18T02:59:14.560Z,99044.34
2022-08-18T03:01:48.938Z,99042.78
2022-08-18T03:04:28.079Z,99046.38
2022-08-18T03:06:59.651Z,99041.97
2022-08-18T03:09:30.232Z,99042.63
2022-08-18T03:12:00.265Z,99037.63
2022-08-18T03:14:30.619Z,99035.25
2022-08-18T03:17:02.785Z,99035.50
2022-08-18T03:19:34.585Z,99033.75
2022-08-18T03:22:27.497Z,99032.94
2022-08-18T03:24:56.608Z,99039.50
2022-08-18T03:27:26.303Z,99045.41
2022-08-18T03:29:55.910Z,99048.03
2022-08-18T03:32:30.936Z,99056.13
2022-08-18T03:35:00.576Z,99040.53
2022-08-18T03:37:30.276Z,99042.06
2022-08-18T03:39:59.921Z,99047.97
2022-08-18T03:42:29.873Z,99049.22
2022-08-18T03:44:59.412Z,99054.69
2022-08-18T03:47:32.056Z,99048.25
2022-08-18T03:50:01.622Z,99052.13
2022-08-18T03:52:31.170Z,99055.25
2022-08-18T03:55:00.813Z,99062.00
2022-08-18T03:57:34.438Z,99059.03
2022-08-18T04:00:12.127Z,99057.22
2022-08-18T04:02:44.254Z,99063.59
2022-08-18T04:05:14.992Z,99056.97
2022-08-18T04:07:44.758Z,99061.97
2022-08-18T04:10:19.699Z,99061.41
2022-08-18T04:12:49.782Z,99062.84
2022-08-18T04:15:21.355Z,99064.66
2022-08-18T04:18:06.070Z,99057.13
2022-08-18T04:20:35.743Z,99059.34
2022-08-18T04:23:05.826Z,99057.03
2022-08-18T04:25:35.637Z,99059.06
2022-08-18T04:28:05.232Z,99075.38
2022-08-18T04:30:34.797Z,99068.69
2022-08-18T04:33:07.092Z,99070.81
2022-08-18T04:35:36.656Z,99077.78
2022-08-18T04:38:07.587Z,99076.34
2022-08-18T04:40:37.120Z,99075.00
2022-08-18T04:43:06.691Z,99070.91
2022-08-18T04:45:36.441Z,99071.00
2022-08-18T04:48:09.319Z,99070.81
2022-08-18T04:50:42.809Z,99068.47
2022-08-18T04:53:25.410Z,99075.06
2022-08-18T04:55:57.701Z,99076.81
2022-08-18T04:58:27.287Z,99082.38
2022-08-18T05:01:01.246Z,99077.41
2022-08-18T05:03:33.530Z,99085.28
2022-08-18T05:06:07.712Z,99081.97
2022-08-18T05:08:37.272Z,99082.19
2022-08-18T05:11:07.019Z,99078.34
2022-08-18T05:13:36.916Z,99074.34
2022-08-18T05:16:16.663Z,99089.50
2022-08-18T05:18:50.800Z,99090.22
2022-08-18T05:21:22.533Z,99089.22
2022-08-18T05:23:54.060Z,99083.00
2022-08-18T05:26:23.656Z,99099.84
2022-08-18T05:28:58.014Z,99098.53
2022-08-18T05:31:35.869Z,99096.34
2022-08-18T05:34:08.368Z,99096.09
2022-08-18T05:36:57.677Z,99096.88
2022-08-18T05:39:30.251Z,99097.09
2022-08-18T05:42:06.457Z,99096.38
2022-08-18T05:44:40.140Z,99102.88
2022-08-18T05:47:14.870Z,99107.00
2022-08-18T05:49:49.185Z,99102.78
2022-08-18T05:52:23.557Z,99099.44
2022-08-18T05:55:09.461Z,99099.66
2022-08-18T05:57:45.543Z,99101.28
2022-08-18T06:00:16.360Z,99107.09
2022-08-18T06:02:54.434Z,99110.22
2022-08-18T06:05:30.575Z,99099.31
2022-08-18T06:08:02.294Z,99102.84
2022-08-18T06:10:31.997Z,99093.13
2022-08-18T06:13:04.047Z,65201.88
2022-08-18T06:15:43.438Z,65201.88
2022-08-18T06:18:31.829Z,65201.88
2022-08-18T06:21:38.335Z,65201.88
2022-08-18T06:24:13.623Z,65201.88
2022-08-18T06:26:51.708Z,65201.88
2022-08-18T06:29:40.337Z,65201.88
2022-08-18T06:32:18.784Z,65201.88
2022-08-18T06:35:05.087Z,65201.88
2022-08-18T06:38:00.097Z,65201.88
2022-08-18T06:40:30.017Z,65201.88
2022-08-18T06:43:02.142Z,65201.88
2022-08-18T06:45:41.942Z,65201.88
2022-08-18T06:48:17.767Z,65201.88
2022-08-18T06:50:51.501Z,65201.88
2022-08-18T06:53:26.972Z,65201.88
2022-08-18T06:55:58.391Z,65201.88
2022-08-18T06:58:31.475Z,65201.88
2022-08-18T07:01:03.386Z,65201.88
2022-08-18T07:03:48.706Z,65201.88
2022-08-18T07:06:31.037Z,65201.88
2022-08-18T07:09:25.968Z,65201.88
2022-08-18T07:12:08.195Z,65201.88
2022-08-18T07:14:46.855Z,65201.88
2022-08-18T07:17:42.149Z,65201.88
2022-08-18T07:20:22.354Z,65201.88
2022-08-18T07:23:00.333Z,65201.88
2022-08-18T07:25:40.973Z,65201.88
2022-08-18T07:28:29.541Z,65201.88
2022-08-18T07:31:17.351Z,65201.88
2022-08-18T07:33:56.741Z,65201.88
2022-08-18T07:36:29.648Z,65201.88
2022-08-18T07:39:05.374Z,65201.88
2022-08-18T07:41:45.326Z,65201.88
2022-08-18T07:44:24.184Z,65201.88
2022-08-18T07:47:00.763Z,65201.88
2022-08-18T07:49:35.514Z,65201.88
2022-08-18T07:52:24.229Z,65201.88
2022-08-18T07:55:09.967Z,65201.88
2022-08-18T07:57:49.631Z,65201.88
2022-08-18T08:00:41.465Z,65201.88
2022-08-18T08:03:33.350Z,65201.88
2022-08-18T08:06:11.741Z,65201.88
2022-08-18T08:08:47.401Z,65201.88
2022-08-18T08:11:26.768Z,65201.88
2022-08-18T08:14:09.846Z,65201.88
2022-08-18T08:16:48.744Z,65201.88
2022-08-18T08:20:00.356Z,65201.88
2022-08-18T08:22:34.505Z,65201.88
2022-08-18T08:25:35.178Z,65201.88
2022-08-18T08:28:09.620Z,65201.88
2022-08-18T08:30:49.498Z,65201.88
2022-08-18T08:33:28.041Z,65201.88
2022-08-18T08:36:01.505Z,65201.88
2022-08-18T08:38:45.022Z,65201.88
2022-08-18T08:41:22.409Z,65201.88
2022-08-18T08:44:09.090Z,65201.88
2022-08-18T08:46:48.298Z,65201.88
2022-08-18T08:49:28.589Z,65201.88
2022-08-18T08:52:03.961Z,65201.88
2022-08-18T08:54:43.475Z,65201.88
2022-08-18T08:57:16.625Z,65201.88
2022-08-18T08:59:50.541Z,65201.88
2022-08-18T09:02:52.465Z,65201.88
2022-08-18T09:05:26.908Z,65201.88
2022-08-18T09:08:25.496Z,65201.88
2022-08-18T09:11:13.351Z,65201.88
2022-08-18T09:14:01.498Z,65201.88
2022-08-18T09:16:47.021Z,65201.88
2022-08-18T09:19:47.506Z,65201.88
2022-08-18T09:22:29.961Z,65201.88
2022-08-18T09:25:00.305Z,65201.88
2022-08-18T09:28:08.832Z,65201.88
2022-08-18T09:30:43.140Z,65201.88
2022-08-18T09:33:22.980Z,65201.88
2022-08-18T09:36:25.687Z,65201.88
2022-08-18T09:39:13.592Z,65201.88
2022-08-18T09:42:03.475Z,65201.88
2022-08-18T09:45:02.663Z,65201.88
2022-08-18T09:48:02.019Z,65201.88
2022-08-18T09:50:58.035Z,65201.88
2022-08-18T09:53:56.667Z,65201.88
2022-08-18T09:56:57.222Z,65201.88
2022-08-18T10:00:19.596Z,65201.88
2022-08-18T10:03:15.880Z,65201.88
2022-08-18T10:06:12.536Z,65201.88
2022-08-18T10:09:26.797Z,65201.88
2022-08-18T10:12:45.435Z,65201.88
2022-08-18T10:15:39.203Z,65201.88
2022-08-18T10:18:34.088Z,65201.88
2022-08-18T10:21:14.434Z,65201.88
2022-08-18T10:24:14.585Z,65201.88
2022-08-18T10:27:13.590Z,65201.88
2022-08-18T10:30:01.195Z,65201.88
2022-08-18T10:32:54.571Z,65201.88
2022-08-18T10:36:11.026Z,65201.88
2022-08-18T10:41:58.290Z,65201.88
2022-08-18T10:44:31.052Z,65201.88
2022-08-18T10:47:11.981Z,65201.88
2022-08-18T10:49:46.902Z,65201.88
2022-08-18T10:55:53.750Z,65201.88
2022-08-18T10:58:50.783Z,65201.88
2022-08-18T11:01:37.911Z,65201.88
2022-08-18T11:04:34.749Z,65201.88
2022-08-18T11:07:12.817Z,65201.88
2022-08-18T11:09:50.902Z,65201.88
2022-08-18T11:13:09.243Z,65201.88
2022-08-18T11:15:53.849Z,65201.88
2022-08-18T11:18:36.248Z,65201.88
2022-08-18T11:24:27.287Z,65201.88
2022-08-18T11:26:58.983Z,65201.88
2022-08-18T11:29:34.631Z,65201.88
2022-08-18T11:32:11.866Z,65201.88
2022-08-18T11:34:53.067Z,65201.88
2022-08-18T11:37:52.303Z,65201.88
2022-08-18T11:43:41.626Z,65201.88
2022-08-18T11:46:29.804Z,65201.88
2022-08-18T11:49:04.273Z,65201.88
2022-08-18T11:51:36.271Z,65201.88
2022-08-18T11:54:25.482Z,65201.88
2022-08-18T11:56:55.719Z,65201.88
2022-08-18T11:59:54.609Z,65201.88
2022-08-18T12:02:27.679Z,65201.88
2022-08-18T12:05:10.574Z,65201.88
2022-08-18T12:07:45.367Z,65201.88
2022-08-18T12:10:31.674Z,65201.88
2022-08-18T12:13:02.925Z,65201.88
2022-08-18T12:15:46.397Z,65201.88
2022-08-18T12:21:08.262Z,65201.88
2022-08-18T12:23:49.448Z,65201.88
2022-08-18T12:26:38.035Z,65201.88
2022-08-18T12:29:11.064Z,65201.88
2022-08-18T12:31:42.567Z,65201.88
2022-08-18T12:37:33.980Z,65201.88
2022-08-18T12:40:06.099Z,65201.88
2022-08-18T12:42:38.451Z,65201.88
2022-08-18T12:45:12.441Z,65201.88
2022-08-18T12:47:44.054Z,65201.88
2022-08-18T12:50:13.753Z,65201.88
2022-08-18T12:52:44.101Z,65201.88
2022-08-18T12:55:22.250Z,65201.88
2022-08-18T12:57:54.579Z,65201.88
2022-08-18T13:00:27.974Z,65201.88
2022-08-18T13:02:59.416Z,65201.88
2022-08-18T13:05:29.885Z,65201.88
2022-08-18T13:08:04.564Z,65201.88
2022-08-18T13:10:43.160Z,65201.88
2022-08-18T13:13:19.674Z,65201.88
2022-08-18T13:15:57.881Z,65201.88
2022-08-18T13:18:29.453Z,65201.88
2022-08-18T13:21:00.273Z,65201.88
2022-08-18T13:23:30.673Z,65201.88
2022-08-18T13:26:03.238Z,65201.88
2022-08-18T13:28:56.632Z,65201.88
2022-08-18T13:31:26.982Z,65201.88
2022-08-18T13:34:00.064Z,65201.88
2022-08-18T13:36:46.124Z,65201.88
2022-08-18T13:39:16.596Z,65201.88
2022-08-18T13:41:47.890Z,65201.88
2022-08-18T13:44:22.631Z,65201.88
2022-08-18T13:46:56.311Z,65201.88
2022-08-18T13:49:29.994Z,65201.88
2022-08-18T13:52:03.087Z,65201.88
2022-08-18T13:54:36.134Z,65201.88
2022-08-18T13:57:08.561Z,65201.88
2022-08-18T13:59:46.772Z,65201.88
2022-08-18T14:02:16.938Z,65201.88
2022-08-18T14:04:49.354Z,65201.88
2022-08-18T14:07:27.469Z,65201.88
2022-08-18T14:09:58.941Z,65201.88
2022-08-18T14:12:35.063Z,65201.88
2022-08-18T14:15:09.485Z,65201.88
2022-08-18T14:17:39.509Z,65201.88
2022-08-18T14:20:27.262Z,65201.88
2022-08-18T14:23:11.862Z,65201.88
2022-08-18T14:25:54.854Z,65201.88
2022-08-18T14:28:25.781Z,65201.88
2022-08-18T14:30:58.955Z,65201.88
2022-08-18T14:33:34.186Z,65201.88
2022-08-18T14:36:29.421Z,65201.88
2022-08-18T14:38:59.451Z,65201.88
2022-08-18T14:41:29.632Z,65201.88
2022-08-18T14:44:12.966Z,65201.88
2022-08-18T14:46:52.222Z,65201.88
2022-08-18T14:49:28.756Z,65201.88
2022-08-18T14:52:00.378Z,65201.88
2022-08-18T14:54:31.236Z,65201.88
2022-08-18T14:57:01.788Z,65201.88
2022-08-18T14:59:34.656Z,65201.88
2022-08-18T15:02:13.477Z,65201.88
2022-08-18T15:04:53.263Z,65201.88
2022-08-18T15:07:26.151Z,65201.88
2022-08-18T15:10:15.646Z,65201.88
2022-08-18T15:12:46.212Z,65201.88
2022-08-18T15:15:17.902Z,65201.88
2022-08-18T15:17:52.999Z,65201.88
2022-08-18T15:20:29.556Z,65201.88
2022-08-18T15:23:16.074Z,65201.88
2022-08-18T15:25:50.974Z,65201.88
2022-08-18T15:28:25.304Z,65201.88
2022-08-18T15:33:51.277Z,65201.88
2022-08-18T15:36:29.067Z,65201.88
2022-08-18T15:38:59.317Z,65201.88
2022-08-18T15:41:43.908Z,65201.88
2022-08-18T15:44:14.481Z,65201.88
2022-08-18T15:46:51.207Z,65201.88
2022-08-18T15:49:25.281Z,65201.88
2022-08-18T15:51:56.636Z,65201.88
2022-08-18T15:54:26.950Z,65201.88
2022-08-18T15:56:58.377Z,65201.88
2022-08-18T15:59:39.662Z,65201.88
2022-08-18T16:02:11.773Z,65201.88
2022-08-18T16:04:45.003Z,65201.88
2022-08-18T16:07:18.037Z,65201.88
2022-08-18T16:10:02.222Z,65201.88
2022-08-18T16:12:31.838Z,65201.88
2022-08-18T16:15:04.107Z,65201.88
2022-08-18T16:17:37.164Z,65201.88
2022-08-18T16:20:10.630Z,65201.88
2022-08-18T16:22:40.547Z,65201.88
2022-08-18T16:25:12.044Z,65201.88
2022-08-18T16:27:43.030Z,65201.88
2022-08-18T16:30:15.153Z,65201.88
2022-08-18T16:32:45.242Z,65201.88
2022-08-18T16:35:18.765Z,65201.88
2022-08-18T16:37:49.295Z,65201.88
2022-08-18T16:40:21.010Z,65201.88
2022-08-18T16:42:56.250Z,65201.88
2022-08-18T16:45:25.812Z,65201.88
2022-08-18T16:47:56.491Z,65201.88
2022-08-18T16:50:28.934Z,65201.88
2022-08-18T16:52:59.919Z,65201.88
2022-08-18T16:55:30.521Z,65201.88
2022-08-18T16:58:15.626Z,65201.88
2022-08-18T17:00:58.654Z,65201.88
2022-08-18T17:03:41.788Z,65201.88
2022-08-18T17:06:16.047Z,65201.88
2022-08-18T17:08:46.586Z,65201.88
2022-08-18T17:11:18.796Z,65201.88
2022-08-18T17:13:50.888Z,65201.88
2022-08-18T17:16:24.746Z,65201.88
2022-08-18T17:18:55.162Z,65201.88
2022-08-18T17:24:04.833Z,65201.88
2022-08-18T17:26:45.212Z,65201.88
2022-08-18T17:29:21.972Z,65201.88
2022-08-18T17:31:55.791Z,65201.88
2022-08-18T17:34:35.846Z,65201.88
2022-08-18T17:37:12.665Z,65201.88
2022-08-18T17:39:44.439Z,65201.88
2022-08-18T17:42:29.274Z,65201.88
2022-08-18T17:45:01.790Z,65201.88
2022-08-18T17:47:38.420Z,65201.88
2022-08-18T17:50:26.684Z,65201.88
2022-08-18T17:53:05.390Z,65201.88
2022-08-18T17:55:40.235Z,65201.88
2022-08-18T17:58:15.615Z,65201.88
2022-08-18T18:00:45.407Z,65201.88
2022-08-18T18:03:15.290Z,65201.88
2022-08-18T18:05:49.320Z,65201.88
2022-08-18T18:08:21.492Z,65201.88
2022-08-18T18:11:07.866Z,65201.88
2022-08-18T18:13:40.093Z,65201.88
2022-08-18T18:16:26.175Z,65201.88
2022-08-18T18:19:03.167Z,65201.88
2022-08-18T18:21:56.564Z,65201.88
2022-08-18T18:24:33.103Z,65201.88
2022-08-18T18:27:03.146Z,65201.88
2022-08-18T18:29:37.954Z,65201.88
2022-08-18T18:32:25.770Z,65201.88
2022-08-18T18:35:13.489Z,65201.88
2022-08-18T18:37:49.597Z,65201.88
2022-08-18T18:40:34.758Z,65201.88
2022-08-18T18:43:20.905Z,65201.88
2022-08-18T18:46:30.324Z,65201.88
2022-08-18T18:49:10.199Z,65201.88
2022-08-18T18:51:47.093Z,65201.88
2022-08-18T18:54:35.010Z,65201.88
2022-08-18T18:57:12.843Z,65201.88
2022-08-18T19:02:57.725Z,65201.88
2022-08-18T19:05:36.998Z,65201.88
2022-08-18T19:08:15.953Z,65201.88
2022-08-18T19:10:52.139Z,65201.88
2022-08-18T19:13:33.410Z,65201.88
2022-08-18T19:16:23.816Z,65201.88
2022-08-18T19:19:35.168Z,65201.88
2022-08-18T19:22:05.244Z,65201.88
2022-08-18T19:24:43.462Z,65201.88
2022-08-18T19:27:24.442Z,65201.88
2022-08-18T19:30:00.894Z,65201.88
2022-08-18T19:32:38.594Z,65201.88
2022-08-18T19:35:12.545Z,65201.88
2022-08-18T19:37:58.441Z,65201.88
2022-08-18T19:40:34.574Z,65201.88
2022-08-18T19:43:12.465Z,65201.88
2022-08-18T19:45:49.957Z,65201.88
2022-08-18T19:48:28.626Z,65201.88
2022-08-18T19:51:05.780Z,65201.88
2022-08-18T19:53:57.668Z,65201.88
2022-08-18T19:56:52.050Z,65201.88
2022-08-18T19:59:55.838Z,65201.88
2022-08-18T20:02:40.877Z,65201.88
2022-08-18T20:05:21.189Z,65201.88
2022-08-18T20:08:30.875Z,65201.88
2022-08-18T20:11:41.385Z,65201.88
2022-08-18T20:14:14.260Z,65201.88
2022-08-18T20:16:45.978Z,65201.88
2022-08-18T20:19:47.684Z,65201.88
2022-08-18T20:22:33.292Z,65201.88
2022-08-18T20:25:08.356Z,65201.88
2022-08-18T20:27:43.175Z,65201.88
2022-08-18T20:30:36.311Z,65201.88
2022-08-18T20:33:17.614Z,65201.88
2022-08-18T20:35:55.971Z,65201.88
2022-08-18T20:38:36.900Z,65201.88
2022-08-18T20:41:32.343Z,65201.88
2022-08-18T20:44:28.578Z,65201.88
2022-08-18T20:47:11.395Z,65201.88
2022-08-18T20:49:54.000Z,65201.88
2022-08-18T20:52:37.754Z,65201.88
2022-08-18T20:55:18.104Z,65201.88
2022-08-18T20:57:50.393Z,65201.88
2022-08-18T21:00:27.759Z,65201.88
2022-08-18T21:02:59.218Z,65201.88
2022-08-18T21:05:34.365Z,65201.88
2022-08-18T21:08:14.244Z,65201.88
2022-08-18T21:10:52.150Z,65201.88
2022-08-18T21:13:39.971Z,65201.88
2022-08-18T21:16:10.647Z,65201.88
2022-08-18T21:18:41.404Z,65201.88
2022-08-18T21:21:27.111Z,65201.88
2022-08-18T21:24:02.339Z,65201.88
2022-08-18T21:26:34.083Z,65201.88
2022-08-18T21:29:10.382Z,65201.88
2022-08-18T21:31:44.981Z,65201.88
2022-08-18T21:34:18.511Z,65201.88
2022-08-18T21:36:54.673Z,65201.88
2022-08-18T21:39:27.546Z,65201.88
2022-08-18T21:41:59.607Z,65201.88
2022-08-18T21:44:41.775Z,65201.88
2022-08-18T21:47:20.481Z,65201.88
2022-08-18T21:50:08.849Z,65201.88
2022-08-18T21:52:40.547Z,65201.88
2022-08-18T21:55:22.284Z,65201.88
2022-08-18T21:58:03.189Z,65201.88
2022-08-18T22:00:37.157Z,65201.88
2022-08-18T22:03:26.516Z,65201.88
2022-08-18T22:06:02.327Z,65201.88
2022-08-18T22:08:33.077Z,65201.88
2022-08-18T22:12:01.380Z,65201.88
2022-08-18T22:14:54.683Z,65201.88
2022-08-18T22:17:35.090Z,65201.88
2022-08-18T22:20:49.853Z,65201.88
2022-08-18T22:23:41.635Z,65201.88
2022-08-18T22:26:16.718Z,65201.88
2022-08-18T22:28:54.150Z,65201.88
2022-08-18T22:31:24.143Z,65201.88
2022-08-18T22:33:55.868Z,65201.88
2022-08-18T22:36:29.109Z,65201.88
2022-08-18T22:38:58.785Z,65201.88
2022-08-18T22:41:32.259Z,65201.88
2022-08-18T22:44:03.976Z,65201.88
2022-08-18T22:46:33.985Z,65201.88
2022-08-18T22:49:04.174Z,65201.88
2022-08-18T22:51:36.844Z,65201.88
2022-08-18T22:54:09.886Z,65201.88
2022-08-18T22:56:54.076Z,65201.88
2022-08-18T22:59:27.075Z,65201.88
2022-08-18T23:01:57.990Z,65201.88
2022-08-18T23:04:28.759Z,65201.88
2022-08-18T23:06:59.027Z,65201.88
2022-08-18T23:09:31.364Z,65201.88
2022-08-18T23:12:05.138Z,65201.88
2022-08-18T23:14:35.698Z,65201.88
